Main page
METAR-TAF:

METAR-TAF

Airports :

Dubai International Airport

Dubai, United Arab Emirates

latitude: 25-15-10N, longitude: 055-21-52E, elevation: 8 m

Current weather observation

The report was made 32 minutes ago, at 11:00 UTC
Wind 15 kt from the North/Northwest
Temperature 38°C
Humidity 68%
Pressure 995 hPa
Visibility: 5000 m
widespread dust

METAR: OMDB 151100Z 33015KT 5000 DU NSC 38/31 Q0995 NOSIG

Time: 15:32 (11:32 UTC)

Forecast

The report was made 6 hours and 36 minutes ago, at 04:56 UTC
Forecast valid from 15 at 06 UTC to 16 at 12 UTC
Wind 5 kt from the East
Visibility: 8000 m
Becoming
from 15 at 07 UTC to 15 at 09 UTC
Wind 12 kt from the North/Northwest
Becoming
from 15 at 19 UTC to 15 at 21 UTC
Wind 5 kt from the East
Becoming
from 16 at 07 UTC to 16 at 09 UTC
Wind 12 kt from the North/Northwest

TAF: OMDB 150456Z 1506/1612 10005KT 8000 NSC BECMG 1507/1509 34012KT BECMG 1519/1521 10005KT BECMG 1607/1609 34012KT

Weather observations and forecasts of more than 4000 airports (METAR and TAF reports).

The available stations are represented by yellow and red dots on the map.

Hover mouse over dot to see the name of the station.

Then click to see weather observations and forecasts.

To change the map : click on the green buttons with a black cross to zoom in, on the green button with a dash to zoom out, or on the green arrows for adjacent maps.


METAR-TAF: